createdAt,value
2017-01-29T00:00:35.322Z,1011.72
2017-01-29T00:01:15.844Z,1011.69
2017-01-29T00:01:56.361Z,1011.74
2017-01-29T00:02:36.912Z,1011.75
2017-01-29T00:03:17.430Z,1011.77
2017-01-29T00:03:57.952Z,1011.77
2017-01-29T00:04:38.485Z,1011.78
2017-01-29T00:05:19.024Z,1011.76
2017-01-29T00:05:59.559Z,1011.79
2017-01-29T00:06:40.091Z,1011.75
2017-01-29T00:07:20.614Z,1011.8
2017-01-29T00:08:01.147Z,1011.74
2017-01-29T00:08:41.659Z,1011.74
2017-01-29T00:09:22.221Z,1011.77
2017-01-29T00:10:02.744Z,1011.74
2017-01-29T00:10:43.273Z,1011.72
2017-01-29T00:11:23.824Z,1011.76
2017-01-29T00:12:04.377Z,1011.76
2017-01-29T00:12:44.917Z,1011.76
2017-01-29T00:13:25.467Z,1011.72
2017-01-29T00:14:05.987Z,1011.79
2017-01-29T00:14:46.529Z,1011.77
2017-01-29T00:15:27.069Z,1011.78
2017-01-29T00:16:07.720Z,1011.81
2017-01-29T00:16:48.250Z,1011.8
2017-01-29T00:17:28.815Z,1011.83
2017-01-29T00:18:09.324Z,1011.75
2017-01-29T00:18:49.853Z,1011.78
2017-01-29T00:19:30.375Z,1011.79
2017-01-29T00:20:10.900Z,1011.81
2017-01-29T00:20:51.411Z,1011.78
2017-01-29T00:21:31.923Z,1011.79
2017-01-29T00:22:12.467Z,1011.78
2017-01-29T00:22:52.994Z,1011.79
2017-01-29T00:23:33.514Z,1011.79
2017-01-29T00:24:14.045Z,1011.77
2017-01-29T00:24:54.561Z,1011.78
2017-01-29T00:25:35.068Z,1011.85
2017-01-29T00:26:15.608Z,1011.84
2017-01-29T00:26:56.137Z,1011.81
2017-01-29T00:27:36.672Z,1011.84
2017-01-29T00:28:17.205Z,1011.85
2017-01-29T00:28:57.758Z,1011.83
2017-01-29T00:29:38.279Z,1011.87
2017-01-29T00:30:18.810Z,1011.84
2017-01-29T00:30:59.351Z,1011.87
2017-01-29T00:31:39.861Z,1011.88
2017-01-29T00:32:20.377Z,1011.88
2017-01-29T00:33:00.908Z,1011.89
2017-01-29T00:33:41.453Z,1011.87
2017-01-29T00:34:21.992Z,1011.88
2017-01-29T00:35:02.530Z,1011.9
2017-01-29T00:35:43.103Z,1011.89
2017-01-29T00:36:23.625Z,1011.89
2017-01-29T00:37:04.142Z,1011.89
2017-01-29T00:37:44.662Z,1011.86
2017-01-29T00:38:25.195Z,1011.87
2017-01-29T00:39:05.707Z,1011.9
2017-01-29T00:39:46.224Z,1011.92
2017-01-29T00:40:26.740Z,1011.92
2017-01-29T00:41:07.270Z,1011.89
2017-01-29T00:41:47.813Z,1011.89
2017-01-29T00:42:28.326Z,1011.89
2017-01-29T00:43:08.839Z,1011.91
2017-01-29T00:43:49.359Z,1011.92
2017-01-29T00:44:29.878Z,1011.9
2017-01-29T00:45:10.432Z,1011.9
2017-01-29T00:45:50.958Z,1011.9
2017-01-29T00:46:31.499Z,1011.95
2017-01-29T00:47:12.014Z,1011.92
2017-01-29T00:47:52.551Z,1011.92
2017-01-29T00:48:33.067Z,1011.94
2017-01-29T00:49:13.602Z,1011.93
2017-01-29T00:49:54.138Z,1011.94
2017-01-29T00:50:34.673Z,1011.98
2017-01-29T00:51:15.215Z,1011.95
2017-01-29T00:51:55.739Z,1011.96
2017-01-29T00:52:36.286Z,1011.95
2017-01-29T00:53:16.832Z,1011.97
2017-01-29T00:53:57.390Z,1011.93
2017-01-29T00:54:37.937Z,1011.96
2017-01-29T00:55:18.459Z,1011.94
2017-01-29T00:55:59.008Z,1011.98
2017-01-29T00:56:39.533Z,1011.95
2017-01-29T00:57:20.059Z,1011.96
2017-01-29T00:58:00.606Z,1011.96
2017-01-29T00:58:41.141Z,1011.97
2017-01-29T00:59:21.696Z,1011.91
2017-01-29T01:00:02.235Z,1011.99
2017-01-29T01:00:42.760Z,1011.95
2017-01-29T01:01:23.302Z,1011.97
2017-01-29T01:02:03.847Z,1011.98
2017-01-29T01:02:44.368Z,1011.96
2017-01-29T01:03:24.931Z,1011.95
2017-01-29T01:04:05.468Z,1011.96
2017-01-29T01:04:45.995Z,1011.95
2017-01-29T01:05:26.529Z,1011.93
2017-01-29T01:06:07.055Z,1011.95
2017-01-29T01:06:47.580Z,1011.93
2017-01-29T01:07:28.107Z,1011.93
2017-01-29T01:08:08.622Z,1011.93
2017-01-29T01:08:49.158Z,1011.96
2017-01-29T01:09:29.697Z,1011.91
2017-01-29T01:10:10.229Z,1011.94
2017-01-29T01:10:50.785Z,1011.93
2017-01-29T01:11:31.312Z,1011.95
2017-01-29T01:12:11.866Z,1011.95
2017-01-29T01:12:52.412Z,1011.97
2017-01-29T01:13:32.949Z,1011.98
2017-01-29T01:14:13.472Z,1012
2017-01-29T01:14:54.009Z,1011.98
2017-01-29T01:15:34.562Z,1011.96
2017-01-29T01:16:15.097Z,1011.98
2017-01-29T01:16:55.639Z,1012
2017-01-29T01:17:36.174Z,1011.96
2017-01-29T01:18:16.695Z,1011.97
2017-01-29T01:18:57.206Z,1011.98
2017-01-29T01:19:37.741Z,1011.91
2017-01-29T01:20:18.259Z,1011.9
2017-01-29T01:20:58.789Z,1011.95
2017-01-29T01:21:39.324Z,1011.92
2017-01-29T01:22:19.844Z,1011.92
2017-01-29T01:23:00.377Z,1011.9
2017-01-29T01:23:40.925Z,1011.92
2017-01-29T01:24:21.456Z,1011.85
2017-01-29T01:25:01.991Z,1011.82
2017-01-29T01:25:42.532Z,1011.86
2017-01-29T01:26:23.048Z,1011.89
2017-01-29T01:27:03.600Z,1011.94
2017-01-29T01:27:44.130Z,1012.02
2017-01-29T01:28:24.659Z,1012.01
2017-01-29T01:29:05.205Z,1012.01
2017-01-29T01:29:45.743Z,1012
2017-01-29T01:30:26.288Z,1012.02
2017-01-29T01:31:06.826Z,1012.05
2017-01-29T01:31:47.363Z,1012.05
2017-01-29T01:32:27.885Z,1012.01
2017-01-29T01:33:08.387Z,1012.02
2017-01-29T01:33:48.926Z,1012.02
2017-01-29T01:34:29.443Z,1012.05
2017-01-29T01:35:10.000Z,1012.02
2017-01-29T01:35:50.543Z,1012.04
2017-01-29T01:36:31.062Z,1012.1
2017-01-29T01:37:11.599Z,1012.06
2017-01-29T01:37:52.128Z,1012.05
2017-01-29T01:38:32.649Z,1012.11
2017-01-29T01:39:13.161Z,1012.1
2017-01-29T01:39:53.689Z,1012.15
2017-01-29T01:40:34.219Z,1012.12
2017-01-29T01:41:14.762Z,1012.17
2017-01-29T01:41:55.283Z,1012.15
2017-01-29T01:42:35.827Z,1012.16
2017-01-29T01:43:16.346Z,1012.15
2017-01-29T01:43:56.881Z,1012.09
2017-01-29T01:44:37.409Z,1012.01
2017-01-29T01:45:17.934Z,1012.04
2017-01-29T01:45:58.486Z,1011.97
2017-01-29T01:46:38.989Z,1011.98
2017-01-29T01:47:19.546Z,1011.96
2017-01-29T01:48:00.085Z,1011.97
2017-01-29T01:48:40.617Z,1011.94
2017-01-29T01:49:21.144Z,1011.97
2017-01-29T01:50:01.685Z,1011.95
2017-01-29T01:50:42.233Z,1011.98
2017-01-29T01:51:22.763Z,1011.99
2017-01-29T01:52:03.304Z,1011.95
2017-01-29T01:52:43.806Z,1011.93
2017-01-29T01:53:24.327Z,1011.93
2017-01-29T01:54:04.835Z,1011.84
2017-01-29T01:54:45.359Z,1011.85
2017-01-29T01:55:25.898Z,1011.85
2017-01-29T01:56:06.457Z,1011.86
2017-01-29T01:56:46.979Z,1011.87
2017-01-29T01:57:27.515Z,1011.9
2017-01-29T01:58:08.035Z,1011.88
2017-01-29T01:58:48.604Z,1011.87
2017-01-29T01:59:29.096Z,1011.85
2017-01-29T02:00:09.616Z,1011.93
2017-01-29T02:00:50.153Z,1011.88
2017-01-29T02:01:30.685Z,1011.87
2017-01-29T02:02:11.237Z,1011.93
2017-01-29T02:02:51.728Z,1011.92
2017-01-29T02:03:32.237Z,1011.96
2017-01-29T02:04:12.762Z,1011.97
2017-01-29T02:04:53.299Z,1012
2017-01-29T02:05:33.795Z,1012.03
2017-01-29T02:06:14.312Z,1012.05
2017-01-29T02:06:54.848Z,1012.07
2017-01-29T02:07:35.374Z,1012.09
2017-01-29T02:08:15.904Z,1012.07
2017-01-29T02:08:56.445Z,1012.08
2017-01-29T02:09:36.968Z,1012.12
2017-01-29T02:10:17.482Z,1012.13
2017-01-29T02:10:58.008Z,1012.14
2017-01-29T02:11:38.520Z,1012.17
2017-01-29T02:12:19.053Z,1012.2
2017-01-29T02:12:59.579Z,1012.21
2017-01-29T02:13:40.094Z,1012.22
2017-01-29T02:14:20.613Z,1012.21
2017-01-29T02:15:01.138Z,1012.23
2017-01-29T02:15:41.690Z,1012.2
2017-01-29T02:16:22.220Z,1012.14
2017-01-29T02:17:02.752Z,1012.14
2017-01-29T02:17:43.275Z,1012.21
2017-01-29T02:18:23.797Z,1012.21
2017-01-29T02:19:04.323Z,1012.12
2017-01-29T02:19:44.856Z,1012.21
2017-01-29T02:20:25.387Z,1012.19
2017-01-29T02:21:05.922Z,1012.21
2017-01-29T02:21:46.449Z,1012.26
2017-01-29T02:22:26.969Z,1012.26
2017-01-29T02:23:07.510Z,1012.23
2017-01-29T02:23:48.032Z,1012.21
2017-01-29T02:24:28.572Z,1012.17
2017-01-29T02:25:09.100Z,1012.11
2017-01-29T02:25:49.628Z,1012.12
2017-01-29T02:26:30.157Z,1012.1
2017-01-29T02:27:10.681Z,1012.07
2017-01-29T02:27:51.193Z,1012
2017-01-29T02:28:31.742Z,1011.99
2017-01-29T02:29:12.274Z,1011.97
2017-01-29T02:29:52.809Z,1011.97
2017-01-29T02:30:33.338Z,1011.96
2017-01-29T02:31:13.859Z,1012.02
2017-01-29T02:31:54.403Z,1012.01
2017-01-29T02:32:34.927Z,1012.03
2017-01-29T02:33:15.443Z,1012.02
2017-01-29T02:33:55.978Z,1012.02
2017-01-29T02:34:36.520Z,1011.99
2017-01-29T02:35:17.070Z,1012.06
2017-01-29T02:35:57.607Z,1012.04
2017-01-29T02:36:38.135Z,1012.08
2017-01-29T02:37:18.686Z,1012.09
2017-01-29T02:37:59.182Z,1012.12
2017-01-29T02:38:39.695Z,1012.11
2017-01-29T02:39:20.247Z,1012.13
2017-01-29T02:40:00.806Z,1012.12
2017-01-29T02:40:41.378Z,1012.03
2017-01-29T02:41:21.948Z,1012.02
2017-01-29T02:42:02.455Z,1011.98
2017-01-29T02:42:42.980Z,1011.99
2017-01-29T02:43:23.526Z,1011.99
2017-01-29T02:44:04.067Z,1011.98
2017-01-29T02:44:44.595Z,1012.01
2017-01-29T02:45:25.138Z,1012.03
2017-01-29T02:46:05.664Z,1012.07
2017-01-29T02:46:46.191Z,1012.07
2017-01-29T02:47:26.708Z,1012.05
2017-01-29T02:48:07.227Z,1012.05
2017-01-29T02:48:47.762Z,1012.09
2017-01-29T02:49:28.294Z,1012.05
2017-01-29T02:50:08.834Z,1012.07
2017-01-29T02:50:49.367Z,1012.04
2017-01-29T02:51:29.893Z,1012.04
2017-01-29T02:52:10.451Z,1012.05
2017-01-29T02:52:50.966Z,1012.05
2017-01-29T02:53:31.499Z,1012.05
2017-01-29T02:54:12.033Z,1012.05
2017-01-29T02:54:52.574Z,1011.99
2017-01-29T02:55:33.117Z,1012
2017-01-29T02:56:13.649Z,1012.01
2017-01-29T02:56:54.235Z,1012
2017-01-29T02:57:34.788Z,1012.04
2017-01-29T02:58:15.322Z,1012.02
2017-01-29T02:58:55.893Z,1012.02
2017-01-29T02:59:36.442Z,1012.08
2017-01-29T03:00:16.972Z,1012.02
2017-01-29T03:00:57.512Z,1012.02
2017-01-29T03:01:38.043Z,1012.03
2017-01-29T03:02:18.599Z,1011.98
2017-01-29T03:02:59.167Z,1011.99
2017-01-29T03:03:39.738Z,1012.01
2017-01-29T03:04:20.295Z,1012
2017-01-29T03:05:00.823Z,1012
2017-01-29T03:05:41.394Z,1012.03
2017-01-29T03:06:21.928Z,1012.07
2017-01-29T03:07:02.468Z,1012.01
2017-01-29T03:07:42.963Z,1012.01
2017-01-29T03:08:23.502Z,1012.06
2017-01-29T03:09:04.034Z,1012.05
2017-01-29T03:09:44.578Z,1012.01
2017-01-29T03:10:25.103Z,1012.04
2017-01-29T03:11:05.644Z,1012.06
2017-01-29T03:11:46.158Z,1012.04
2017-01-29T03:12:26.677Z,1012.1
2017-01-29T03:13:07.209Z,1012.06
2017-01-29T03:13:47.725Z,1012.06
2017-01-29T03:14:28.251Z,1012.03
2017-01-29T03:15:08.770Z,1012.07
2017-01-29T03:15:49.281Z,1012.03
2017-01-29T03:16:29.810Z,1012.06
2017-01-29T03:17:10.327Z,1012.05
2017-01-29T03:17:50.859Z,1012.04
2017-01-29T03:18:31.375Z,1012.09
2017-01-29T03:19:11.923Z,1012.07
2017-01-29T03:19:52.464Z,1012.1
2017-01-29T03:20:32.993Z,1012.12
2017-01-29T03:21:13.545Z,1012.08
2017-01-29T03:21:54.067Z,1012.1
2017-01-29T03:22:34.599Z,1012.11
2017-01-29T03:23:15.126Z,1012.12
2017-01-29T03:23:55.670Z,1012.12
2017-01-29T03:24:36.204Z,1012.14
2017-01-29T03:25:16.718Z,1012.13
2017-01-29T03:25:57.235Z,1012.16
2017-01-29T03:26:37.815Z,1012.11
2017-01-29T03:27:18.343Z,1012.21
2017-01-29T03:27:58.881Z,1012.2
2017-01-29T03:28:39.429Z,1012.2
2017-01-29T03:29:19.934Z,1012.13
2017-01-29T03:30:00.454Z,1012.18
2017-01-29T03:30:40.985Z,1012.17
2017-01-29T03:31:21.509Z,1012.13
2017-01-29T03:32:02.048Z,1012.16
2017-01-29T03:32:42.576Z,1012.15
2017-01-29T03:33:23.098Z,1012.17
2017-01-29T03:34:03.637Z,1012.18
2017-01-29T03:34:44.165Z,1012.17
2017-01-29T03:35:24.716Z,1012.19
2017-01-29T03:36:05.241Z,1012.22
2017-01-29T03:36:45.772Z,1012.19
2017-01-29T03:37:26.334Z,1012.2
2017-01-29T03:38:06.886Z,1012.2
2017-01-29T03:38:47.432Z,1012.23
2017-01-29T03:39:27.959Z,1012.2
2017-01-29T03:40:08.502Z,1012.23
2017-01-29T03:40:49.029Z,1012.25
2017-01-29T03:41:29.539Z,1012.24
2017-01-29T03:42:10.070Z,1012.33
2017-01-29T03:42:50.596Z,1012.26
2017-01-29T03:43:31.110Z,1012.29
2017-01-29T03:44:11.649Z,1012.29
2017-01-29T03:44:52.174Z,1012.27
2017-01-29T03:45:32.724Z,1012.33
2017-01-29T03:46:13.253Z,1012.34
2017-01-29T03:46:53.766Z,1012.36
2017-01-29T03:47:34.284Z,1012.35
2017-01-29T03:48:14.798Z,1012.38
2017-01-29T03:48:55.341Z,1012.4
2017-01-29T03:49:35.865Z,1012.4
2017-01-29T03:50:16.389Z,1012.37
2017-01-29T03:50:56.932Z,1012.38
2017-01-29T03:51:37.462Z,1012.38
2017-01-29T03:52:17.979Z,1012.35
2017-01-29T03:52:58.529Z,1012.4
2017-01-29T03:53:39.095Z,1012.39
2017-01-29T03:54:19.597Z,1012.41
2017-01-29T03:55:00.124Z,1012.4
2017-01-29T03:55:40.657Z,1012.38
2017-01-29T03:56:21.183Z,1012.4
2017-01-29T03:57:01.717Z,1012.4
2017-01-29T03:57:42.250Z,1012.41
2017-01-29T03:58:22.779Z,1012.41
2017-01-29T03:59:03.307Z,1012.47
2017-01-29T03:59:43.829Z,1012.47
2017-01-29T04:00:24.404Z,1012.45
2017-01-29T04:01:04.952Z,1012.43
2017-01-29T04:01:45.499Z,1012.48
2017-01-29T04:02:26.020Z,1012.46
2017-01-29T04:03:06.554Z,1012.46
2017-01-29T04:03:47.087Z,1012.41
2017-01-29T04:04:27.643Z,1012.45
2017-01-29T04:05:08.194Z,1012.39
2017-01-29T04:05:48.701Z,1012.4
2017-01-29T04:06:29.223Z,1012.43
2017-01-29T04:07:09.762Z,1012.43
2017-01-29T04:07:50.309Z,1012.44
2017-01-29T04:08:30.833Z,1012.44
2017-01-29T04:09:11.344Z,1012.42
2017-01-29T04:09:51.876Z,1012.48
2017-01-29T04:10:32.399Z,1012.48
2017-01-29T04:11:12.946Z,1012.45
2017-01-29T04:11:53.503Z,1012.47
2017-01-29T04:12:33.993Z,1012.43
2017-01-29T04:13:14.515Z,1012.45
2017-01-29T04:13:55.045Z,1012.42
2017-01-29T04:14:35.566Z,1012.38
2017-01-29T04:15:16.095Z,1012.36
2017-01-29T04:15:56.630Z,1012.3
2017-01-29T04:16:37.175Z,1012.26
2017-01-29T04:17:17.718Z,1012.29
2017-01-29T04:17:58.239Z,1012.26
2017-01-29T04:18:38.774Z,1012.3
2017-01-29T04:19:19.305Z,1012.28
2017-01-29T04:19:59.833Z,1012.31
2017-01-29T04:20:40.367Z,1012.3
2017-01-29T04:21:20.888Z,1012.31
2017-01-29T04:22:01.415Z,1012.34
2017-01-29T04:22:41.946Z,1012.34
2017-01-29T04:23:22.497Z,1012.36
2017-01-29T04:24:03.026Z,1012.33
2017-01-29T04:24:43.537Z,1012.3
2017-01-29T04:25:24.062Z,1012.33
2017-01-29T04:26:04.585Z,1012.29
2017-01-29T04:26:45.109Z,1012.31
2017-01-29T04:27:25.653Z,1012.3
2017-01-29T04:28:06.176Z,1012.3
2017-01-29T04:28:46.704Z,1012.26
2017-01-29T04:29:27.233Z,1012.27
2017-01-29T04:30:07.746Z,1012.27
2017-01-29T04:30:48.278Z,1012.24
2017-01-29T04:31:28.817Z,1012.28
2017-01-29T04:32:09.368Z,1012.28
2017-01-29T04:32:49.866Z,1012.22
2017-01-29T04:33:30.386Z,1012.2
2017-01-29T04:34:10.911Z,1012.26
2017-01-29T04:34:51.445Z,1012.27
2017-01-29T04:35:31.970Z,1012.28
2017-01-29T04:36:12.508Z,1012.3
2017-01-29T04:36:53.045Z,1012.26
2017-01-29T04:37:33.610Z,1012.22
2017-01-29T04:38:14.165Z,1012.24
2017-01-29T04:38:54.687Z,1012.18
2017-01-29T04:39:35.208Z,1012.2
2017-01-29T04:40:15.732Z,1012.14
2017-01-29T04:40:56.268Z,1012.22
2017-01-29T04:41:36.845Z,1012.2
2017-01-29T04:42:17.376Z,1012.21
2017-01-29T04:42:57.937Z,1012.21
2017-01-29T04:43:38.484Z,1012.2
2017-01-29T04:44:19.050Z,1012.19
2017-01-29T04:44:59.591Z,1012.21
2017-01-29T04:45:40.117Z,1012.19
2017-01-29T04:46:20.663Z,1012.21
2017-01-29T04:47:01.243Z,1012.18
2017-01-29T04:47:41.785Z,1012.15
2017-01-29T04:48:22.287Z,1012.18
2017-01-29T04:49:02.812Z,1012.18
2017-01-29T04:49:43.355Z,1012.15
2017-01-29T04:50:23.865Z,1012.14
2017-01-29T04:51:04.412Z,1012.17
2017-01-29T04:51:44.942Z,1012.13
2017-01-29T04:52:25.490Z,1012.14
2017-01-29T04:53:06.028Z,1012.15
2017-01-29T04:53:46.565Z,1012.13
2017-01-29T04:54:27.091Z,1012.15
2017-01-29T04:55:07.621Z,1012.12
2017-01-29T04:55:48.135Z,1012.16
2017-01-29T04:56:28.667Z,1012.15
2017-01-29T04:57:09.209Z,1012.13
2017-01-29T04:57:49.729Z,1012.17
2017-01-29T04:58:30.273Z,1012.14
2017-01-29T04:59:10.809Z,1012.14
2017-01-29T04:59:51.352Z,1012.15
2017-01-29T05:00:31.885Z,1012.14
2017-01-29T05:01:12.432Z,1012.2
2017-01-29T05:01:52.968Z,1012.17
2017-01-29T05:02:33.504Z,1012.19
2017-01-29T05:03:14.046Z,1012.17
2017-01-29T05:03:54.560Z,1012.21
2017-01-29T05:04:35.110Z,1012.17
2017-01-29T05:05:15.630Z,1012.16
2017-01-29T05:05:56.156Z,1012.2
2017-01-29T05:06:36.701Z,1012.16
2017-01-29T05:07:17.225Z,1012.18
2017-01-29T05:07:57.763Z,1012.16
2017-01-29T05:08:38.288Z,1012.27
2017-01-29T05:09:18.875Z,1012.29
2017-01-29T05:09:59.395Z,1012.25
2017-01-29T05:10:39.915Z,1012.25
2017-01-29T05:11:20.437Z,1012.29
2017-01-29T05:12:01.109Z,1012.31
2017-01-29T05:12:41.636Z,1012.28
2017-01-29T05:13:22.170Z,1012.33
2017-01-29T05:14:02.686Z,1012.31
2017-01-29T05:14:43.210Z,1012.33
2017-01-29T05:15:23.738Z,1012.33
2017-01-29T05:16:04.262Z,1012.29
2017-01-29T05:16:44.807Z,1012.33
2017-01-29T05:17:25.334Z,1012.29
2017-01-29T05:18:05.844Z,1012.28
2017-01-29T05:18:46.363Z,1012.26
2017-01-29T05:19:26.902Z,1012.28
2017-01-29T05:20:07.423Z,1012.25
2017-01-29T05:20:47.942Z,1012.25
2017-01-29T05:21:28.490Z,1012.24
2017-01-29T05:22:09.011Z,1012.22
2017-01-29T05:22:49.580Z,1012.22
2017-01-29T05:23:30.057Z,1012.23
2017-01-29T05:24:10.608Z,1012.25
2017-01-29T05:24:51.112Z,1012.23
2017-01-29T05:25:31.652Z,1012.25
2017-01-29T05:26:12.172Z,1012.27
2017-01-29T05:26:52.703Z,1012.26
2017-01-29T05:27:33.221Z,1012.29
2017-01-29T05:28:13.758Z,1012.33
2017-01-29T05:28:54.307Z,1012.34
2017-01-29T05:29:34.873Z,1012.32
2017-01-29T05:30:15.394Z,1012.33
2017-01-29T05:30:55.929Z,1012.39
2017-01-29T05:31:36.439Z,1012.36
2017-01-29T05:32:16.956Z,1012.33
2017-01-29T05:32:57.475Z,1012.34
2017-01-29T05:33:38.002Z,1012.35
2017-01-29T05:34:18.520Z,1012.32
2017-01-29T05:34:59.087Z,1012.3
2017-01-29T05:35:39.621Z,1012.3
2017-01-29T05:36:20.142Z,1012.26
2017-01-29T05:37:00.662Z,1012.27
2017-01-29T05:37:41.201Z,1012.25
2017-01-29T05:38:21.713Z,1012.24
2017-01-29T05:39:02.264Z,1012.24
2017-01-29T05:39:42.798Z,1012.24
2017-01-29T05:40:23.342Z,1012.24
2017-01-29T05:41:03.860Z,1012.2
2017-01-29T05:41:44.383Z,1012.19
2017-01-29T05:42:24.952Z,1012.18
2017-01-29T05:43:05.466Z,1012.17
2017-01-29T05:43:45.998Z,1012.2
2017-01-29T05:44:26.530Z,1012.19
2017-01-29T05:45:07.044Z,1012.2
2017-01-29T05:45:47.575Z,1012.21
2017-01-29T05:46:28.109Z,1012.24
2017-01-29T05:47:08.634Z,1012.22
2017-01-29T05:47:49.178Z,1012.27
2017-01-29T05:48:29.724Z,1012.3
2017-01-29T05:49:10.259Z,1012.3
2017-01-29T05:49:50.780Z,1012.28
2017-01-29T05:50:31.357Z,1012.32
2017-01-29T05:51:11.869Z,1012.34
2017-01-29T05:51:52.397Z,1012.32
2017-01-29T05:52:32.927Z,1012.33
2017-01-29T05:53:13.453Z,1012.34
2017-01-29T05:53:53.994Z,1012.33
2017-01-29T05:54:34.518Z,1012.35
2017-01-29T05:55:15.079Z,1012.36
2017-01-29T05:55:55.628Z,1012.32
2017-01-29T05:56:36.194Z,1012.37
2017-01-29T05:57:16.699Z,1012.37
2017-01-29T05:57:57.242Z,1012.34
2017-01-29T05:58:37.764Z,1012.34
2017-01-29T05:59:18.289Z,1012.36
2017-01-29T05:59:58.876Z,1012.31
2017-01-29T06:00:39.386Z,1012.33
2017-01-29T06:01:19.915Z,1012.31
2017-01-29T06:02:00.493Z,1012.31
2017-01-29T06:02:41.014Z,1012.37
2017-01-29T06:03:21.539Z,1012.32
2017-01-29T06:04:02.056Z,1012.36
2017-01-29T06:04:42.605Z,1012.34
2017-01-29T06:05:23.111Z,1012.34
2017-01-29T06:06:03.639Z,1012.33
2017-01-29T06:06:44.190Z,1012.33
2017-01-29T06:07:24.714Z,1012.34
2017-01-29T06:08:05.243Z,1012.33
2017-01-29T06:08:45.786Z,1012.36
2017-01-29T06:09:26.305Z,1012.37
2017-01-29T06:10:06.827Z,1012.37
2017-01-29T06:10:47.344Z,1012.4
2017-01-29T06:11:27.921Z,1012.38
2017-01-29T06:12:08.484Z,1012.41
2017-01-29T06:12:48.998Z,1012.39
2017-01-29T06:13:29.518Z,1012.39
2017-01-29T06:14:10.067Z,1012.41
2017-01-29T06:14:50.606Z,1012.43
2017-01-29T06:15:31.131Z,1012.42
2017-01-29T06:16:11.673Z,1012.43
2017-01-29T06:16:52.180Z,1012.4
2017-01-29T06:17:32.720Z,1012.45
2017-01-29T06:18:13.259Z,1012.42
2017-01-29T06:18:53.818Z,1012.43
2017-01-29T06:19:34.390Z,1012.42
2017-01-29T06:20:14.950Z,1012.44
2017-01-29T06:20:55.473Z,1012.42
2017-01-29T06:21:36.007Z,1012.41
2017-01-29T06:22:16.529Z,1012.43
2017-01-29T06:22:57.060Z,1012.36
2017-01-29T06:23:37.589Z,1012.41
2017-01-29T06:24:18.145Z,1012.42
2017-01-29T06:24:58.702Z,1012.45
2017-01-29T06:25:39.240Z,1012.43
2017-01-29T06:26:19.774Z,1012.45
2017-01-29T06:27:00.314Z,1012.44
2017-01-29T06:27:40.853Z,1012.45
2017-01-29T06:28:21.372Z,1012.45
2017-01-29T06:29:01.915Z,1012.47
2017-01-29T06:29:42.447Z,1012.43
2017-01-29T06:30:22.986Z,1012.41
2017-01-29T06:31:03.488Z,1012.42
2017-01-29T06:31:44.007Z,1012.43
2017-01-29T06:32:24.551Z,1012.43
2017-01-29T06:33:05.076Z,1012.43
2017-01-29T06:33:45.605Z,1012.39
2017-01-29T06:34:26.163Z,1012.4
2017-01-29T06:35:06.697Z,1012.43
2017-01-29T06:35:47.235Z,1012.43
2017-01-29T06:36:27.776Z,1012.36
2017-01-29T06:37:08.295Z,1012.4
2017-01-29T06:37:48.829Z,1012.4
2017-01-29T06:38:29.372Z,1012.39
2017-01-29T06:39:09.912Z,1012.36
2017-01-29T06:39:50.426Z,1012.41
2017-01-29T06:40:30.969Z,1012.37
2017-01-29T06:41:11.497Z,1012.4
2017-01-29T06:41:52.062Z,1012.41
2017-01-29T06:42:32.599Z,1012.41
2017-01-29T06:43:13.125Z,1012.44
2017-01-29T06:43:53.678Z,1012.4
2017-01-29T06:44:34.210Z,1012.45
2017-01-29T06:45:14.721Z,1012.41
2017-01-29T06:45:55.258Z,1012.43
2017-01-29T06:46:35.800Z,1012.38
2017-01-29T06:47:16.334Z,1012.41
2017-01-29T06:47:56.882Z,1012.42
2017-01-29T06:48:37.448Z,1012.45
2017-01-29T06:49:17.998Z,1012.45
2017-01-29T06:49:58.524Z,1012.45
2017-01-29T06:50:39.052Z,1012.45
2017-01-29T06:51:19.561Z,1012.41
2017-01-29T06:52:00.082Z,1012.39
2017-01-29T06:52:40.611Z,1012.41
2017-01-29T06:53:21.129Z,1012.43
2017-01-29T06:54:01.664Z,1012.45
2017-01-29T06:54:42.190Z,1012.44
2017-01-29T06:55:22.713Z,1012.46
2017-01-29T06:56:03.249Z,1012.39
2017-01-29T06:56:43.786Z,1012.48
2017-01-29T06:57:24.304Z,1012.48
2017-01-29T06:58:04.814Z,1012.46
2017-01-29T06:58:45.336Z,1012.45
2017-01-29T06:59:25.850Z,1012.43
2017-01-29T07:00:06.386Z,1012.42
2017-01-29T07:00:46.921Z,1012.44
2017-01-29T07:01:27.464Z,1012.44
2017-01-29T07:02:08.048Z,1012.39
2017-01-29T07:02:48.573Z,1012.41
2017-01-29T07:03:29.094Z,1012.39
2017-01-29T07:04:09.641Z,1012.43
2017-01-29T07:04:50.180Z,1012.42
2017-01-29T07:05:30.712Z,1012.41
2017-01-29T07:06:11.262Z,1012.41
2017-01-29T07:06:51.784Z,1012.41
2017-01-29T07:07:32.296Z,1012.37
2017-01-29T07:08:12.813Z,1012.4
2017-01-29T07:08:53.331Z,1012.4
2017-01-29T07:09:33.867Z,1012.4
2017-01-29T07:10:14.371Z,1012.4
2017-01-29T07:10:54.885Z,1012.4
2017-01-29T07:11:35.427Z,1012.37
2017-01-29T07:12:15.947Z,1012.37
2017-01-29T07:12:56.471Z,1012.33
2017-01-29T07:13:36.992Z,1012.37
2017-01-29T07:14:17.535Z,1012.36
2017-01-29T07:14:58.061Z,1012.35
2017-01-29T07:15:38.602Z,1012.35
2017-01-29T07:16:19.136Z,1012.37
2017-01-29T07:16:59.655Z,1012.38
2017-01-29T07:17:40.194Z,1012.39
2017-01-29T07:18:20.758Z,1012.42
2017-01-29T07:19:01.278Z,1012.4
2017-01-29T07:19:41.817Z,1012.41
2017-01-29T07:20:22.339Z,1012.41
2017-01-29T07:21:02.863Z,1012.41
2017-01-29T07:21:43.400Z,1012.41
2017-01-29T07:22:23.935Z,1012.38
2017-01-29T07:23:04.446Z,1012.43
2017-01-29T07:23:44.970Z,1012.41
2017-01-29T07:24:25.485Z,1012.42
2017-01-29T07:25:06.019Z,1012.41
2017-01-29T07:25:46.536Z,1012.44
2017-01-29T07:26:27.066Z,1012.42
2017-01-29T07:27:07.589Z,1012.41
2017-01-29T07:27:48.121Z,1012.39
2017-01-29T07:28:28.645Z,1012.38
2017-01-29T07:29:09.210Z,1012.37
2017-01-29T07:29:49.711Z,1012.38
2017-01-29T07:30:30.275Z,1012.39
2017-01-29T07:31:10.788Z,1012.4
2017-01-29T07:31:51.333Z,1012.38
2017-01-29T07:32:31.856Z,1012.38
2017-01-29T07:33:12.403Z,1012.34
2017-01-29T07:33:52.933Z,1012.35
2017-01-29T07:34:33.444Z,1012.35
2017-01-29T07:35:13.990Z,1012.37
2017-01-29T07:35:54.527Z,1012.34
2017-01-29T07:36:35.084Z,1012.35
2017-01-29T07:37:15.625Z,1012.39
2017-01-29T07:37:56.184Z,1012.39
2017-01-29T07:38:36.748Z,1012.38
2017-01-29T07:39:17.299Z,1012.39
2017-01-29T07:39:57.811Z,1012.37
2017-01-29T07:40:38.355Z,1012.4
2017-01-29T07:41:18.884Z,1012.4
2017-01-29T07:41:59.440Z,1012.4
2017-01-29T07:42:39.965Z,1012.41
2017-01-29T07:43:20.521Z,1012.39
2017-01-29T07:44:01.105Z,1012.43
2017-01-29T07:44:41.626Z,1012.42
2017-01-29T07:45:22.155Z,1012.41
2017-01-29T07:46:02.727Z,1012.43
2017-01-29T07:46:43.236Z,1012.45
2017-01-29T07:47:23.779Z,1012.42
2017-01-29T07:48:04.291Z,1012.43
2017-01-29T07:48:44.824Z,1012.45
2017-01-29T07:49:25.373Z,1012.46
2017-01-29T07:50:05.908Z,1012.47
2017-01-29T07:50:46.425Z,1012.49
2017-01-29T07:51:26.947Z,1012.44
2017-01-29T07:52:07.479Z,1012.45
2017-01-29T07:52:48.024Z,1012.46
2017-01-29T07:53:28.546Z,1012.43
2017-01-29T07:54:09.067Z,1012.35
2017-01-29T07:54:49.617Z,1012.43
2017-01-29T07:55:30.150Z,1012.4
2017-01-29T07:56:10.678Z,1012.34
2017-01-29T07:56:51.207Z,1012.35
2017-01-29T07:57:31.745Z,1012.32
2017-01-29T07:58:12.309Z,1012.33
2017-01-29T07:58:52.816Z,1012.32
2017-01-29T07:59:33.338Z,1012.32
2017-01-29T08:00:13.899Z,1012.33
2017-01-29T08:00:54.431Z,1012.38
2017-01-29T08:01:34.956Z,1012.36
2017-01-29T08:02:15.496Z,1012.39
2017-01-29T08:02:56.045Z,1012.37
2017-01-29T08:03:36.570Z,1012.36
2017-01-29T08:04:17.116Z,1012.33
2017-01-29T08:04:57.667Z,1012.37
2017-01-29T08:05:38.202Z,1012.34
2017-01-29T08:06:18.769Z,1012.38
2017-01-29T08:06:59.306Z,1012.37
2017-01-29T08:07:39.836Z,1012.4
2017-01-29T08:08:20.366Z,1012.43
2017-01-29T08:09:00.891Z,1012.42
2017-01-29T08:09:41.449Z,1012.36
2017-01-29T08:10:21.964Z,1012.41
2017-01-29T08:11:02.503Z,1012.42
2017-01-29T08:11:43.063Z,1012.41
2017-01-29T08:12:23.579Z,1012.43